sensor_id;sensor_type;location;lat;lon;timestamp;temperature;humidity
6690;DHT22;3382;51.576;8.076;2022-09-13T00:01:29;20.80;99.90
6690;DHT22;3382;51.576;8.076;2022-09-13T00:03:54;20.70;99.90
6690;DHT22;3382;51.576;8.076;2022-09-13T00:06:21;20.80;99.90
6690;DHT22;3382;51.576;8.076;2022-09-13T00:08:47;20.80;99.90
6690;DHT22;3382;51.576;8.076;2022-09-13T00:11:15;20.80;99.90
6690;DHT22;3382;51.576;8.076;2022-09-13T00:13:41;20.80;99.90
6690;DHT22;3382;51.576;8.076;2022-09-13T00:16:11;20.80;99.90
6690;DHT22;3382;51.576;8.076;2022-09-13T00:18:37;20.80;99.90
6690;DHT22;3382;51.576;8.076;2022-09-13T00:21:04;20.80;99.90
6690;DHT22;3382;51.576;8.076;2022-09-13T00:23:30;20.80;99.90
6690;DHT22;3382;51.576;8.076;2022-09-13T00:26:06;20.80;99.90
6690;DHT22;3382;51.576;8.076;2022-09-13T00:28:33;20.80;99.90
6690;DHT22;3382;51.576;8.076;2022-09-13T00:31:03;20.80;99.90
6690;DHT22;3382;51.576;8.076;2022-09-13T00:33:30;20.80;99.90
6690;DHT22;3382;51.576;8.076;2022-09-13T00:35:56;20.80;99.90
6690;DHT22;3382;51.576;8.076;2022-09-13T00:38:22;20.80;99.90
6690;DHT22;3382;51.576;8.076;2022-09-13T00:40:48;20.80;99.90
6690;DHT22;3382;51.576;8.076;2022-09-13T00:43:18;20.90;99.90
6690;DHT22;3382;51.576;8.076;2022-09-13T00:45:45;20.90;99.90
6690;DHT22;3382;51.576;8.076;2022-09-13T00:48:20;20.90;99.90
6690;DHT22;3382;51.576;8.076;2022-09-13T00:50:52;20.80;99.90
6690;DHT22;3382;51.576;8.076;2022-09-13T00:53:24;20.80;99.90
6690;DHT22;3382;51.576;8.076;2022-09-13T00:56:04;20.80;99.90
6690;DHT22;3382;51.576;8.076;2022-09-13T00:58:32;20.80;99.90
6690;DHT22;3382;51.576;8.076;2022-09-13T01:01:00;20.80;99.90
6690;DHT22;3382;51.576;8.076;2022-09-13T01:03:30;20.80;99.90
6690;DHT22;3382;51.576;8.076;2022-09-13T01:06:01;20.80;99.90
6690;DHT22;3382;51.576;8.076;2022-09-13T01:08:28;20.80;99.90
6690;DHT22;3382;51.576;8.076;2022-09-13T01:10:58;20.80;99.90
6690;DHT22;3382;51.576;8.076;2022-09-13T01:13:32;20.80;99.90
6690;DHT22;3382;51.576;8.076;2022-09-13T01:15:59;20.80;99.90
6690;DHT22;3382;51.576;8.076;2022-09-13T01:18:25;20.80;99.90
6690;DHT22;3382;51.576;8.076;2022-09-13T01:37:28;20.90;99.90
6690;DHT22;3382;51.576;8.076;2022-09-13T01:43:03;20.90;99.90
6690;DHT22;3382;51.576;8.076;2022-09-13T01:48:12;20.90;99.90
6690;DHT22;3382;51.576;8.076;2022-09-13T01:50:46;20.90;99.90
6690;DHT22;3382;51.576;8.076;2022-09-13T01:55:58;20.90;99.90
6690;DHT22;3382;51.576;8.076;2022-09-13T02:03:37;20.90;99.90
6690;DHT22;3382;51.576;8.076;2022-09-13T02:06:17;20.90;99.90
6690;DHT22;3382;51.576;8.076;2022-09-13T02:08:52;20.90;99.90
6690;DHT22;3382;51.576;8.076;2022-09-13T02:11:19;20.90;99.90
6690;DHT22;3382;51.576;8.076;2022-09-13T02:19:10;20.90;99.90
6690;DHT22;3382;51.576;8.076;2022-09-13T02:21:40;20.90;99.90
6690;DHT22;3382;51.576;8.076;2022-09-13T02:26:40;20.90;99.90
6690;DHT22;3382;51.576;8.076;2022-09-13T02:29:10;20.90;99.90
6690;DHT22;3382;51.576;8.076;2022-09-13T02:31:42;21.00;99.90
6690;DHT22;3382;51.576;8.076;2022-09-13T02:34:20;21.00;99.90
6690;DHT22;3382;51.576;8.076;2022-09-13T02:36:47;21.00;99.90
6690;DHT22;3382;51.576;8.076;2022-09-13T02:39:19;21.00;99.90
6690;DHT22;3382;51.576;8.076;2022-09-13T02:42:07;21.00;99.90
6690;DHT22;3382;51.576;8.076;2022-09-13T02:44:39;21.00;99.90
6690;DHT22;3382;51.576;8.076;2022-09-13T02:55:20;21.10;99.90
6690;DHT22;3382;51.576;8.076;2022-09-13T03:00:19;21.10;99.90
6690;DHT22;3382;51.576;8.076;2022-09-13T03:02:46;21.10;99.90
6690;DHT22;3382;51.576;8.076;2022-09-13T03:05:12;21.10;99.90
6690;DHT22;3382;51.576;8.076;2022-09-13T03:07:38;21.10;99.90
6690;DHT22;3382;51.576;8.076;2022-09-13T03:10:08;21.10;99.90
6690;DHT22;3382;51.576;8.076;2022-09-13T03:20:40;21.10;99.90
6690;DHT22;3382;51.576;8.076;2022-09-13T03:28:52;21.10;99.90
6690;DHT22;3382;51.576;8.076;2022-09-13T03:37:19;21.30;99.90
6690;DHT22;3382;51.576;8.076;2022-09-13T03:39:55;21.50;99.90
6690;DHT22;3382;51.576;8.076;2022-09-13T03:42:26;21.80;99.90
6690;DHT22;3382;51.576;8.076;2022-09-13T03:44:55;22.20;99.90
6690;DHT22;3382;51.576;8.076;2022-09-13T03:47:24;22.30;99.90
6690;DHT22;3382;51.576;8.076;2022-09-13T03:49:52;22.30;99.90
6690;DHT22;3382;51.576;8.076;2022-09-13T03:52:19;22.50;99.90
6690;DHT22;3382;51.576;8.076;2022-09-13T03:54:44;22.50;99.90
6690;DHT22;3382;51.576;8.076;2022-09-13T03:57:16;22.40;99.90
6690;DHT22;3382;51.576;8.076;2022-09-13T03:59:48;22.20;99.90
6690;DHT22;3382;51.576;8.076;2022-09-13T04:02:14;22.10;99.90
6690;DHT22;3382;51.576;8.076;2022-09-13T04:04:41;22.00;99.90
6690;DHT22;3382;51.576;8.076;2022-09-13T04:07:08;22.00;99.90
6690;DHT22;3382;51.576;8.076;2022-09-13T04:09:34;21.90;99.90
6690;DHT22;3382;51.576;8.076;2022-09-13T04:11:59;21.80;99.90
6690;DHT22;3382;51.576;8.076;2022-09-13T04:14:25;21.80;99.90
6690;DHT22;3382;51.576;8.076;2022-09-13T04:16:55;21.80;99.90
6690;DHT22;3382;51.576;8.076;2022-09-13T04:19:22;21.70;99.90
6690;DHT22;3382;51.576;8.076;2022-09-13T04:21:49;21.70;99.90
6690;DHT22;3382;51.576;8.076;2022-09-13T04:24:17;21.70;99.90
6690;DHT22;3382;51.576;8.076;2022-09-13T04:26:44;21.60;99.90
6690;DHT22;3382;51.576;8.076;2022-09-13T04:29:10;21.60;99.90
6690;DHT22;3382;51.576;8.076;2022-09-13T04:31:36;21.60;99.90
6690;DHT22;3382;51.576;8.076;2022-09-13T04:34:02;21.50;99.90
6690;DHT22;3382;51.576;8.076;2022-09-13T04:36:29;21.50;99.90
6690;DHT22;3382;51.576;8.076;2022-09-13T04:38:56;21.60;99.90
6690;DHT22;3382;51.576;8.076;2022-09-13T04:41:21;21.60;99.90
6690;DHT22;3382;51.576;8.076;2022-09-13T04:43:50;21.60;99.90
6690;DHT22;3382;51.576;8.076;2022-09-13T04:46:16;21.60;99.90
6690;DHT22;3382;51.576;8.076;2022-09-13T04:48:42;21.60;99.90
6690;DHT22;3382;51.576;8.076;2022-09-13T04:51:07;21.60;99.90
6690;DHT22;3382;51.576;8.076;2022-09-13T04:53:33;21.60;99.90
6690;DHT22;3382;51.576;8.076;2022-09-13T04:56:04;21.80;99.90
6690;DHT22;3382;51.576;8.076;2022-09-13T04:58:30;21.90;99.90
6690;DHT22;3382;51.576;8.076;2022-09-13T05:01:07;21.90;99.90
6690;DHT22;3382;51.576;8.076;2022-09-13T05:03:34;21.90;99.90
6690;DHT22;3382;51.576;8.076;2022-09-13T05:06:04;22.00;99.90
6690;DHT22;3382;51.576;8.076;2022-09-13T05:08:30;22.00;99.90
6690;DHT22;3382;51.576;8.076;2022-09-13T05:10:56;22.00;99.90
6690;DHT22;3382;51.576;8.076;2022-09-13T05:13:23;22.20;99.90
6690;DHT22;3382;51.576;8.076;2022-09-13T05:15:49;22.20;99.90
6690;DHT22;3382;51.576;8.076;2022-09-13T05:18:14;22.20;99.90
6690;DHT22;3382;51.576;8.076;2022-09-13T05:20:40;22.10;99.90
6690;DHT22;3382;51.576;8.076;2022-09-13T05:23:06;22.40;99.90
6690;DHT22;3382;51.576;8.076;2022-09-13T05:25:31;22.80;99.90
6690;DHT22;3382;51.576;8.076;2022-09-13T05:27:57;22.80;99.90
6690;DHT22;3382;51.576;8.076;2022-09-13T05:30:23;22.80;99.90
6690;DHT22;3382;51.576;8.076;2022-09-13T05:32:48;22.80;99.90
6690;DHT22;3382;51.576;8.076;2022-09-13T05:35:14;22.70;99.90
6690;DHT22;3382;51.576;8.076;2022-09-13T05:37:39;22.80;99.90
6690;DHT22;3382;51.576;8.076;2022-09-13T05:40:05;22.80;99.90
6690;DHT22;3382;51.576;8.076;2022-09-13T05:42:31;22.80;99.90
6690;DHT22;3382;51.576;8.076;2022-09-13T05:44:57;22.80;99.90
6690;DHT22;3382;51.576;8.076;2022-09-13T05:47:22;22.80;99.90
6690;DHT22;3382;51.576;8.076;2022-09-13T05:49:48;22.80;99.90
6690;DHT22;3382;51.576;8.076;2022-09-13T05:52:14;22.80;99.90
6690;DHT22;3382;51.576;8.076;2022-09-13T05:54:39;22.80;99.90
6690;DHT22;3382;51.576;8.076;2022-09-13T05:57:05;22.90;99.90
6690;DHT22;3382;51.576;8.076;2022-09-13T05:59:30;22.90;99.90
6690;DHT22;3382;51.576;8.076;2022-09-13T06:01:56;23.00;99.90
6690;DHT22;3382;51.576;8.076;2022-09-13T06:04:22;23.10;99.90
6690;DHT22;3382;51.576;8.076;2022-09-13T06:06:48;23.30;99.90
6690;DHT22;3382;51.576;8.076;2022-09-13T06:09:14;23.60;99.90
6690;DHT22;3382;51.576;8.076;2022-09-13T06:11:40;23.60;99.90
6690;DHT22;3382;51.576;8.076;2022-09-13T06:14:06;23.70;99.90
6690;DHT22;3382;51.576;8.076;2022-09-13T06:16:31;23.70;99.90
6690;DHT22;3382;51.576;8.076;2022-09-13T06:18:57;23.70;99.90
6690;DHT22;3382;51.576;8.076;2022-09-13T06:21:23;23.90;99.90
6690;DHT22;3382;51.576;8.076;2022-09-13T06:23:50;23.90;99.90
6690;DHT22;3382;51.576;8.076;2022-09-13T06:26:19;24.00;99.90
6690;DHT22;3382;51.576;8.076;2022-09-13T06:28:50;24.10;99.90
6690;DHT22;3382;51.576;8.076;2022-09-13T06:31:17;24.40;99.90
6690;DHT22;3382;51.576;8.076;2022-09-13T06:33:43;24.70;99.90
6690;DHT22;3382;51.576;8.076;2022-09-13T06:36:11;25.00;99.90
6690;DHT22;3382;51.576;8.076;2022-09-13T06:38:42;25.00;99.90
6690;DHT22;3382;51.576;8.076;2022-09-13T06:41:13;25.10;99.90
6690;DHT22;3382;51.576;8.076;2022-09-13T06:43:40;25.20;99.90
6690;DHT22;3382;51.576;8.076;2022-09-13T06:46:11;25.10;99.90
6690;DHT22;3382;51.576;8.076;2022-09-13T06:48:39;25.10;99.90
6690;DHT22;3382;51.576;8.076;2022-09-13T06:51:13;25.20;99.90
6690;DHT22;3382;51.576;8.076;2022-09-13T06:53:40;25.30;99.90
6690;DHT22;3382;51.576;8.076;2022-09-13T06:56:18;25.50;99.90
6690;DHT22;3382;51.576;8.076;2022-09-13T06:58:46;25.70;99.90
6690;DHT22;3382;51.576;8.076;2022-09-13T07:01:14;25.90;99.90
6690;DHT22;3382;51.576;8.076;2022-09-13T07:03:45;26.00;99.90
6690;DHT22;3382;51.576;8.076;2022-09-13T07:06:16;26.20;99.90
6690;DHT22;3382;51.576;8.076;2022-09-13T07:08:43;26.30;99.90
6690;DHT22;3382;51.576;8.076;2022-09-13T07:11:11;26.30;99.90
6690;DHT22;3382;51.576;8.076;2022-09-13T07:13:37;26.20;99.90
6690;DHT22;3382;51.576;8.076;2022-09-13T07:16:05;26.30;99.90
6690;DHT22;3382;51.576;8.076;2022-09-13T07:18:32;26.50;99.90
6690;DHT22;3382;51.576;8.076;2022-09-13T07:21:02;26.60;99.90
6690;DHT22;3382;51.576;8.076;2022-09-13T07:23:29;26.70;99.90
6690;DHT22;3382;51.576;8.076;2022-09-13T07:25:55;26.60;99.90
6690;DHT22;3382;51.576;8.076;2022-09-13T07:28:30;26.60;99.90
6690;DHT22;3382;51.576;8.076;2022-09-13T07:31:19;26.40;99.90
6690;DHT22;3382;51.576;8.076;2022-09-13T07:33:46;26.10;99.90
6690;DHT22;3382;51.576;8.076;2022-09-13T07:36:13;26.00;99.90
6690;DHT22;3382;51.576;8.076;2022-09-13T07:38:41;26.00;99.90
6690;DHT22;3382;51.576;8.076;2022-09-13T07:41:11;26.10;99.90
6690;DHT22;3382;51.576;8.076;2022-09-13T07:43:37;26.40;99.90
6690;DHT22;3382;51.576;8.076;2022-09-13T07:46:06;26.60;99.90
6690;DHT22;3382;51.576;8.076;2022-09-13T07:48:34;26.80;99.90
6690;DHT22;3382;51.576;8.076;2022-09-13T07:53:38;27.00;99.90
6690;DHT22;3382;51.576;8.076;2022-09-13T07:56:06;27.10;99.90
6690;DHT22;3382;51.576;8.076;2022-09-13T07:58:34;27.10;99.90
6690;DHT22;3382;51.576;8.076;2022-09-13T08:01:06;27.10;99.90
6690;DHT22;3382;51.576;8.076;2022-09-13T08:03:33;27.00;99.90
6690;DHT22;3382;51.576;8.076;2022-09-13T08:05:58;27.00;99.90
6690;DHT22;3382;51.576;8.076;2022-09-13T08:08:24;27.00;99.90
6690;DHT22;3382;51.576;8.076;2022-09-13T08:10:50;27.00;99.90
6690;DHT22;3382;51.576;8.076;2022-09-13T08:13:16;27.00;99.90
6690;DHT22;3382;51.576;8.076;2022-09-13T08:15:42;27.00;99.90
6690;DHT22;3382;51.576;8.076;2022-09-13T08:18:08;27.10;99.90
6690;DHT22;3382;51.576;8.076;2022-09-13T08:20:37;27.10;99.90
6690;DHT22;3382;51.576;8.076;2022-09-13T08:23:05;27.10;99.90
6690;DHT22;3382;51.576;8.076;2022-09-13T08:25:34;27.10;99.90
6690;DHT22;3382;51.576;8.076;2022-09-13T08:28:11;27.10;99.90
6690;DHT22;3382;51.576;8.076;2022-09-13T08:30:39;27.10;99.90
6690;DHT22;3382;51.576;8.076;2022-09-13T08:33:06;27.10;99.90
6690;DHT22;3382;51.576;8.076;2022-09-13T08:35:32;27.10;99.90
6690;DHT22;3382;51.576;8.076;2022-09-13T08:37:58;27.10;99.90
6690;DHT22;3382;51.576;8.076;2022-09-13T08:40:28;27.10;99.90
6690;DHT22;3382;51.576;8.076;2022-09-13T08:45:35;27.10;99.90
6690;DHT22;3382;51.576;8.076;2022-09-13T08:48:22;27.00;99.90
6690;DHT22;3382;51.576;8.076;2022-09-13T08:50:58;27.00;99.90
6690;DHT22;3382;51.576;8.076;2022-09-13T08:53:30;27.00;99.90
6690;DHT22;3382;51.576;8.076;2022-09-13T08:56:05;27.00;99.90
6690;DHT22;3382;51.576;8.076;2022-09-13T08:58:58;27.00;99.90
6690;DHT22;3382;51.576;8.076;2022-09-13T09:01:44;26.90;99.90
6690;DHT22;3382;51.576;8.076;2022-09-13T09:04:36;27.00;99.90
6690;DHT22;3382;51.576;8.076;2022-09-13T09:07:16;27.00;99.90
6690;DHT22;3382;51.576;8.076;2022-09-13T09:09:51;27.00;99.90
6690;DHT22;3382;51.576;8.076;2022-09-13T09:12:47;27.00;99.90
6690;DHT22;3382;51.576;8.076;2022-09-13T09:15:21;27.00;99.90
6690;DHT22;3382;51.576;8.076;2022-09-13T09:20:37;27.00;99.90
6690;DHT22;3382;51.576;8.076;2022-09-13T09:23:16;27.00;99.90
6690;DHT22;3382;51.576;8.076;2022-09-13T09:25:42;27.00;99.90
6690;DHT22;3382;51.576;8.076;2022-09-13T09:28:16;27.00;99.90
6690;DHT22;3382;51.576;8.076;2022-09-13T09:30:53;27.00;99.90
6690;DHT22;3382;51.576;8.076;2022-09-13T09:38:53;27.00;99.90
6690;DHT22;3382;51.576;8.076;2022-09-13T09:41:27;27.00;99.90
6690;DHT22;3382;51.576;8.076;2022-09-13T09:46:28;27.00;99.90
6690;DHT22;3382;51.576;8.076;2022-09-13T09:49:01;27.00;99.90
6690;DHT22;3382;51.576;8.076;2022-09-13T09:51:50;27.00;99.90
6690;DHT22;3382;51.576;8.076;2022-09-13T09:54:17;27.00;99.90
6690;DHT22;3382;51.576;8.076;2022-09-13T09:56:52;27.00;99.90
6690;DHT22;3382;51.576;8.076;2022-09-13T09:59:27;27.10;99.90
6690;DHT22;3382;51.576;8.076;2022-09-13T10:01:54;27.00;99.90
6690;DHT22;3382;51.576;8.076;2022-09-13T10:04:22;27.10;99.90
6690;DHT22;3382;51.576;8.076;2022-09-13T10:06:48;27.20;99.90
6690;DHT22;3382;51.576;8.076;2022-09-13T10:09:19;27.30;99.90
6690;DHT22;3382;51.576;8.076;2022-09-13T10:11:56;27.30;99.90
6690;DHT22;3382;51.576;8.076;2022-09-13T10:14:41;27.30;99.90
6690;DHT22;3382;51.576;8.076;2022-09-13T10:17:26;27.30;99.90
6690;DHT22;3382;51.576;8.076;2022-09-13T10:19:59;27.30;99.90
6690;DHT22;3382;51.576;8.076;2022-09-13T10:22:27;27.30;99.90
6690;DHT22;3382;51.576;8.076;2022-09-13T10:24:54;27.30;99.90
6690;DHT22;3382;51.576;8.076;2022-09-13T10:27:31;27.40;99.90
6690;DHT22;3382;51.576;8.076;2022-09-13T10:29:59;27.30;99.90
6690;DHT22;3382;51.576;8.076;2022-09-13T10:32:27;27.30;99.90
6690;DHT22;3382;51.576;8.076;2022-09-13T10:34:54;27.30;99.90
6690;DHT22;3382;51.576;8.076;2022-09-13T10:37:25;27.20;99.90
6690;DHT22;3382;51.576;8.076;2022-09-13T10:42:25;27.10;99.90
6690;DHT22;3382;51.576;8.076;2022-09-13T10:45:00;27.10;99.90
6690;DHT22;3382;51.576;8.076;2022-09-13T10:47:44;27.10;99.90
6690;DHT22;3382;51.576;8.076;2022-09-13T10:50:17;27.10;99.90
6690;DHT22;3382;51.576;8.076;2022-09-13T10:52:49;27.00;99.90
6690;DHT22;3382;51.576;8.076;2022-09-13T10:57:48;27.10;99.90
6690;DHT22;3382;51.576;8.076;2022-09-13T11:00:19;27.10;99.90
6690;DHT22;3382;51.576;8.076;2022-09-13T11:02:59;27.20;99.90
6690;DHT22;3382;51.576;8.076;2022-09-13T11:05:32;27.20;99.90
6690;DHT22;3382;51.576;8.076;2022-09-13T11:13:34;27.20;99.90
6690;DHT22;3382;51.576;8.076;2022-09-13T11:27:00;27.10;99.90
6690;DHT22;3382;51.576;8.076;2022-09-13T11:40:41;27.10;99.90
6690;DHT22;3382;51.576;8.076;2022-09-13T11:48:35;27.20;99.90
6690;DHT22;3382;51.576;8.076;2022-09-13T11:56:29;27.20;99.90
6690;DHT22;3382;51.576;8.076;2022-09-13T12:01:57;27.20;99.90
6690;DHT22;3382;51.576;8.076;2022-09-13T12:04:34;27.30;99.90
6690;DHT22;3382;51.576;8.076;2022-09-13T12:07:12;27.30;99.90
6690;DHT22;3382;51.576;8.076;2022-09-13T12:09:51;27.30;99.90
6690;DHT22;3382;51.576;8.076;2022-09-13T12:12:18;27.30;99.90
6690;DHT22;3382;51.576;8.076;2022-09-13T12:15:05;27.30;99.90
6690;DHT22;3382;51.576;8.076;2022-09-13T12:17:39;27.30;99.90
6690;DHT22;3382;51.576;8.076;2022-09-13T12:20:24;27.30;99.90
6690;DHT22;3382;51.576;8.076;2022-09-13T12:22:54;27.30;99.90
6690;DHT22;3382;51.576;8.076;2022-09-13T12:25:24;27.40;99.90
6690;DHT22;3382;51.576;8.076;2022-09-13T12:28:02;27.30;99.90
6690;DHT22;3382;51.576;8.076;2022-09-13T12:30:41;27.40;99.90
6690;DHT22;3382;51.576;8.076;2022-09-13T12:33:13;27.30;99.90
6690;DHT22;3382;51.576;8.076;2022-09-13T12:35:52;27.30;99.90
6690;DHT22;3382;51.576;8.076;2022-09-13T12:38:37;27.30;99.90
6690;DHT22;3382;51.576;8.076;2022-09-13T12:41:19;27.30;99.90
6690;DHT22;3382;51.576;8.076;2022-09-13T12:44:12;27.20;99.90
6690;DHT22;3382;51.576;8.076;2022-09-13T13:03:29;27.30;99.90
6690;DHT22;3382;51.576;8.076;2022-09-13T13:07:15;27.30;99.90
6690;DHT22;3382;51.576;8.076;2022-09-13T13:12:11;27.30;99.90
6690;DHT22;3382;51.576;8.076;2022-09-13T13:14:50;27.30;99.90
6690;DHT22;3382;51.576;8.076;2022-09-13T13:23:29;27.30;99.90
6690;DHT22;3382;51.576;8.076;2022-09-13T13:39:08;27.40;99.90
6690;DHT22;3382;51.576;8.076;2022-09-13T13:46:45;27.50;99.90
6690;DHT22;3382;51.576;8.076;2022-09-13T13:57:30;27.50;99.90
6690;DHT22;3382;51.576;8.076;2022-09-13T14:00:04;27.60;99.90
6690;DHT22;3382;51.576;8.076;2022-09-13T14:13:59;27.80;99.90
6690;DHT22;3382;51.576;8.076;2022-09-13T14:21:29;27.90;99.90
6690;DHT22;3382;51.576;8.076;2022-09-13T14:24:15;28.00;99.90
6690;DHT22;3382;51.576;8.076;2022-09-13T14:26:42;27.90;99.90
6690;DHT22;3382;51.576;8.076;2022-09-13T14:29:08;27.80;99.90
6690;DHT22;3382;51.576;8.076;2022-09-13T14:31:35;27.70;99.90
6690;DHT22;3382;51.576;8.076;2022-09-13T14:34:01;27.50;99.90
6690;DHT22;3382;51.576;8.076;2022-09-13T14:36:27;27.30;99.90
6690;DHT22;3382;51.576;8.076;2022-09-13T14:38:58;27.40;99.90
6690;DHT22;3382;51.576;8.076;2022-09-13T14:41:33;27.50;99.90
6690;DHT22;3382;51.576;8.076;2022-09-13T14:44:15;27.70;99.90
6690;DHT22;3382;51.576;8.076;2022-09-13T14:46:43;27.70;99.90
6690;DHT22;3382;51.576;8.076;2022-09-13T14:49:17;27.80;99.90
6690;DHT22;3382;51.576;8.076;2022-09-13T14:51:54;27.80;99.90
6690;DHT22;3382;51.576;8.076;2022-09-13T14:54:38;27.80;99.90
6690;DHT22;3382;51.576;8.076;2022-09-13T14:57:09;27.80;99.90
6690;DHT22;3382;51.576;8.076;2022-09-13T14:59:46;27.60;99.90
6690;DHT22;3382;51.576;8.076;2022-09-13T15:02:21;27.70;99.90
6690;DHT22;3382;51.576;8.076;2022-09-13T15:04:51;27.80;99.90
6690;DHT22;3382;51.576;8.076;2022-09-13T15:07:37;27.60;99.90
6690;DHT22;3382;51.576;8.076;2022-09-13T15:20:46;27.60;99.90
6690;DHT22;3382;51.576;8.076;2022-09-13T15:23:19;27.80;99.90
6690;DHT22;3382;51.576;8.076;2022-09-13T15:26:11;27.90;99.90
6690;DHT22;3382;51.576;8.076;2022-09-13T15:28:50;27.80;99.90
6690;DHT22;3382;51.576;8.076;2022-09-13T15:31:34;27.50;99.90
6690;DHT22;3382;51.576;8.076;2022-09-13T15:34:29;27.70;99.90
6690;DHT22;3382;51.576;8.076;2022-09-13T15:37:08;27.80;99.90
6690;DHT22;3382;51.576;8.076;2022-09-13T15:39:49;27.60;99.90
6690;DHT22;3382;51.576;8.076;2022-09-13T15:42:16;27.70;99.90
6690;DHT22;3382;51.576;8.076;2022-09-13T15:44:42;27.70;99.90
6690;DHT22;3382;51.576;8.076;2022-09-13T15:47:15;27.50;99.90
6690;DHT22;3382;51.576;8.076;2022-09-13T15:49:47;27.50;99.90
6690;DHT22;3382;51.576;8.076;2022-09-13T15:52:13;27.60;99.90
6690;DHT22;3382;51.576;8.076;2022-09-13T15:54:41;27.80;99.90
6690;DHT22;3382;51.576;8.076;2022-09-13T15:57:29;27.80;99.90
6690;DHT22;3382;51.576;8.076;2022-09-13T15:59:54;27.90;99.90
6690;DHT22;3382;51.576;8.076;2022-09-13T16:02:30;28.00;99.90
6690;DHT22;3382;51.576;8.076;2022-09-13T16:04:56;27.90;99.90
6690;DHT22;3382;51.576;8.076;2022-09-13T16:07:23;27.60;99.90
6690;DHT22;3382;51.576;8.076;2022-09-13T16:09:49;27.30;99.90
6690;DHT22;3382;51.576;8.076;2022-09-13T16:12:15;27.00;99.90
6690;DHT22;3382;51.576;8.076;2022-09-13T16:14:43;26.90;99.90
6690;DHT22;3382;51.576;8.076;2022-09-13T16:17:18;26.80;99.90
6690;DHT22;3382;51.576;8.076;2022-09-13T16:19:44;26.70;99.90
6690;DHT22;3382;51.576;8.076;2022-09-13T16:22:10;26.80;99.90
6690;DHT22;3382;51.576;8.076;2022-09-13T16:24:35;26.90;99.90
6690;DHT22;3382;51.576;8.076;2022-09-13T16:27:03;27.10;99.90
6690;DHT22;3382;51.576;8.076;2022-09-13T16:29:29;27.20;99.90
6690;DHT22;3382;51.576;8.076;2022-09-13T16:31:55;27.10;99.90
6690;DHT22;3382;51.576;8.076;2022-09-13T16:34:22;27.10;99.90
6690;DHT22;3382;51.576;8.076;2022-09-13T16:36:47;27.30;99.90
6690;DHT22;3382;51.576;8.076;2022-09-13T16:39:13;27.40;99.90
6690;DHT22;3382;51.576;8.076;2022-09-13T16:41:39;27.50;99.90
6690;DHT22;3382;51.576;8.076;2022-09-13T16:44:05;27.60;99.90
6690;DHT22;3382;51.576;8.076;2022-09-13T16:46:31;27.70;99.90
6690;DHT22;3382;51.576;8.076;2022-09-13T16:48:57;27.70;99.90
6690;DHT22;3382;51.576;8.076;2022-09-13T16:51:24;27.70;99.90
6690;DHT22;3382;51.576;8.076;2022-09-13T16:53:51;27.80;99.90
6690;DHT22;3382;51.576;8.076;2022-09-13T16:56:18;27.80;99.90
6690;DHT22;3382;51.576;8.076;2022-09-13T16:58:46;27.80;99.90
6690;DHT22;3382;51.576;8.076;2022-09-13T17:01:14;27.70;99.90
6690;DHT22;3382;51.576;8.076;2022-09-13T17:03:40;27.50;99.90
6690;DHT22;3382;51.576;8.076;2022-09-13T17:06:08;27.20;99.90
6690;DHT22;3382;51.576;8.076;2022-09-13T17:08:36;27.00;99.90
6690;DHT22;3382;51.576;8.076;2022-09-13T17:11:11;27.00;99.90
6690;DHT22;3382;51.576;8.076;2022-09-13T17:13:37;26.90;99.90
6690;DHT22;3382;51.576;8.076;2022-09-13T17:16:06;27.00;99.90
6690;DHT22;3382;51.576;8.076;2022-09-13T17:18:33;27.00;99.90
6690;DHT22;3382;51.576;8.076;2022-09-13T17:20:59;27.10;99.90
6690;DHT22;3382;51.576;8.076;2022-09-13T17:23:24;27.10;99.90
6690;DHT22;3382;51.576;8.076;2022-09-13T17:25:50;27.00;99.90
6690;DHT22;3382;51.576;8.076;2022-09-13T17:28:17;27.00;99.90
6690;DHT22;3382;51.576;8.076;2022-09-13T17:30:44;27.00;99.90
6690;DHT22;3382;51.576;8.076;2022-09-13T17:33:11;27.10;99.90
6690;DHT22;3382;51.576;8.076;2022-09-13T17:35:37;26.90;99.90
6690;DHT22;3382;51.576;8.076;2022-09-13T17:38:03;26.70;99.90
6690;DHT22;3382;51.576;8.076;2022-09-13T17:40:30;26.40;99.90
6690;DHT22;3382;51.576;8.076;2022-09-13T17:42:57;26.20;99.90
6690;DHT22;3382;51.576;8.076;2022-09-13T17:45:23;26.10;99.90
6690;DHT22;3382;51.576;8.076;2022-09-13T17:47:53;26.00;99.90
6690;DHT22;3382;51.576;8.076;2022-09-13T17:50:19;25.90;99.90
6690;DHT22;3382;51.576;8.076;2022-09-13T17:52:45;25.80;99.90
6690;DHT22;3382;51.576;8.076;2022-09-13T17:55:10;25.70;99.90
6690;DHT22;3382;51.576;8.076;2022-09-13T17:57:37;25.60;99.90
6690;DHT22;3382;51.576;8.076;2022-09-13T18:00:04;25.50;99.90
6690;DHT22;3382;51.576;8.076;2022-09-13T18:02:32;25.40;99.90
6690;DHT22;3382;51.576;8.076;2022-09-13T18:04:58;25.40;99.90
6690;DHT22;3382;51.576;8.076;2022-09-13T18:07:23;25.30;99.90
6690;DHT22;3382;51.576;8.076;2022-09-13T18:09:49;25.30;99.90
6690;DHT22;3382;51.576;8.076;2022-09-13T18:12:14;25.20;99.90
6690;DHT22;3382;51.576;8.076;2022-09-13T18:14:40;25.20;99.90
6690;DHT22;3382;51.576;8.076;2022-09-13T18:17:06;25.10;99.90
6690;DHT22;3382;51.576;8.076;2022-09-13T18:19:41;25.00;99.90
6690;DHT22;3382;51.576;8.076;2022-09-13T18:22:07;25.00;99.90
6690;DHT22;3382;51.576;8.076;2022-09-13T18:24:33;24.90;99.90
6690;DHT22;3382;51.576;8.076;2022-09-13T18:27:00;24.90;99.90
6690;DHT22;3382;51.576;8.076;2022-09-13T18:29:26;24.80;99.90
6690;DHT22;3382;51.576;8.076;2022-09-13T18:31:53;24.70;99.90
6690;DHT22;3382;51.576;8.076;2022-09-13T18:34:20;24.70;99.90
6690;DHT22;3382;51.576;8.076;2022-09-13T18:36:45;24.60;99.90
6690;DHT22;3382;51.576;8.076;2022-09-13T18:39:15;24.50;99.90
6690;DHT22;3382;51.576;8.076;2022-09-13T18:41:41;24.50;99.90
6690;DHT22;3382;51.576;8.076;2022-09-13T18:44:08;24.50;99.90
6690;DHT22;3382;51.576;8.076;2022-09-13T18:46:35;24.40;99.90
6690;DHT22;3382;51.576;8.076;2022-09-13T18:49:02;24.40;99.90
6690;DHT22;3382;51.576;8.076;2022-09-13T18:51:33;24.40;99.90
6690;DHT22;3382;51.576;8.076;2022-09-13T18:54:00;24.30;99.90
6690;DHT22;3382;51.576;8.076;2022-09-13T18:56:27;24.30;99.90
6690;DHT22;3382;51.576;8.076;2022-09-13T18:58:54;24.30;99.90
6690;DHT22;3382;51.576;8.076;2022-09-13T19:01:23;24.20;99.90
6690;DHT22;3382;51.576;8.076;2022-09-13T19:04:00;24.20;99.90
6690;DHT22;3382;51.576;8.076;2022-09-13T19:06:50;24.20;99.90
6690;DHT22;3382;51.576;8.076;2022-09-13T19:09:16;24.10;99.90
6690;DHT22;3382;51.576;8.076;2022-09-13T19:11:45;24.10;99.90
6690;DHT22;3382;51.576;8.076;2022-09-13T19:14:13;24.00;99.90
6690;DHT22;3382;51.576;8.076;2022-09-13T19:16:39;24.00;99.90
6690;DHT22;3382;51.576;8.076;2022-09-13T19:19:05;23.90;99.90
6690;DHT22;3382;51.576;8.076;2022-09-13T19:21:31;23.80;99.90
6690;DHT22;3382;51.576;8.076;2022-09-13T19:23:59;23.80;99.90
6690;DHT22;3382;51.576;8.076;2022-09-13T19:26:27;23.80;99.90
6690;DHT22;3382;51.576;8.076;2022-09-13T19:28:55;23.70;99.90
6690;DHT22;3382;51.576;8.076;2022-09-13T19:31:23;23.70;99.90
6690;DHT22;3382;51.576;8.076;2022-09-13T19:33:50;23.70;99.90
6690;DHT22;3382;51.576;8.076;2022-09-13T19:36:18;23.60;99.90
6690;DHT22;3382;51.576;8.076;2022-09-13T19:38:44;23.60;99.90
6690;DHT22;3382;51.576;8.076;2022-09-13T19:41:12;23.60;99.90
6690;DHT22;3382;51.576;8.076;2022-09-13T19:43:40;23.60;99.90
6690;DHT22;3382;51.576;8.076;2022-09-13T19:46:08;23.60;99.90
6690;DHT22;3382;51.576;8.076;2022-09-13T19:48:39;23.60;99.90
6690;DHT22;3382;51.576;8.076;2022-09-13T19:51:07;23.50;99.90